Time;durP1;ratioP1;P1;durP2;ratioP2;P2;SDS_P1;SDS_P2;PMS_P1;PMS_P2;Temp;Humidity;BMP_temperature;BMP_pressure;BME280_temperature;BME280_humidity;BME280_pressure;Samples;Min_cycle;Max_cycle;Signal;HPM_P1;HPM_P2
2023/05/02 00:01:53;;;;;;;0.70;0.50;;;;;;;8.11;100.00;100899.69;5034489;28;20041;-66
2023/05/02 00:04:19;;;;;;;1.02;0.50;;;;;;;8.28;100.00;100931.69;5016459;28;20504;-67
2023/05/02 00:06:45;;;;;;;0.85;0.60;;;;;;;8.09;100.00;100933.06;5032721;28;20036;-67
2023/05/02 00:09:11;;;;;;;1.15;0.60;;;;;;;8.10;100.00;100940.91;5033162;28;20099;-67
2023/05/02 00:11:36;;;;;;;1.15;0.60;;;;;;;8.07;100.00;100932.38;5032242;28;20041;-67
2023/05/02 00:14:02;;;;;;;2.50;0.80;;;;;;;7.98;100.00;100942.34;5032142;28;20056;-66
2023/05/02 00:16:27;;;;;;;2.05;0.70;;;;;;;8.23;100.00;100940.28;5031375;28;20120;-66
2023/05/02 00:18:53;;;;;;;1.13;0.57;;;;;;;8.30;99.55;100941.22;5031812;28;20087;-66
2023/05/02 00:21:19;;;;;;;0.70;0.57;;;;;;;7.90;100.00;100900.34;5033083;28;20087;-66
2023/05/02 00:23:44;;;;;;;1.20;0.70;;;;;;;7.92;100.00;100943.88;5033431;28;20025;-66
2023/05/02 00:26:10;;;;;;;0.55;0.50;;;;;;;7.77;100.00;100949.16;5049208;28;20103;-67
2023/05/02 00:28:36;;;;;;;0.90;0.70;;;;;;;7.79;100.00;100932.09;5042553;28;20033;-66
2023/05/02 00:31:03;;;;;;;1.23;0.90;;;;;;;8.04;100.00;100952.31;5035002;28;20029;-67
2023/05/02 00:33:29;;;;;;;0.80;0.70;;;;;;;8.24;98.36;100964.25;5034453;28;20025;-67
2023/05/02 00:35:55;;;;;;;1.33;0.88;;;;;;;8.13;99.04;100959.31;5033416;28;20492;-67
2023/05/02 00:38:20;;;;;;;1.05;0.80;;;;;;;8.32;97.60;100957.16;5017107;28;20053;-67
2023/05/02 00:40:49;;;;;;;1.25;0.70;;;;;;;8.11;98.80;100958.66;5033378;28;20539;-66
2023/05/02 00:43:15;;;;;;;2.17;0.88;;;;;;;8.28;97.03;100937.06;5031370;28;20092;-66
2023/05/02 00:45:42;;;;;;;0.70;0.70;;;;;;;8.33;97.22;100967.69;5033431;28;20056;-66
2023/05/02 00:48:09;;;;;;;1.20;0.80;;;;;;;8.39;97.22;100966.16;5033440;28;20026;-67
2023/05/02 00:50:36;;;;;;;0.80;0.80;;;;;;;8.24;96.81;100953.53;5031461;28;20029;-67
2023/05/02 00:53:03;;;;;;;1.08;0.90;;;;;;;8.34;97.18;100972.03;5030623;28;20037;-66
2023/05/02 00:55:29;;;;;;;1.85;0.90;;;;;;;8.22;97.63;100984.22;5034241;28;20035;-67
2023/05/02 00:57:55;;;;;;;1.50;0.93;;;;;;;7.75;98.55;100943.16;5034310;28;20060;-67
2023/05/02 01:00:26;;;;;;;1.48;0.90;;;;;;;8.25;97.81;100975.81;5035801;28;20476;-67
2023/05/02 01:03:09;;;;;;;1.45;0.90;;;;;;;8.16;97.28;100990.28;5036251;28;20022;-66
2023/05/02 01:05:58;;;;;;;1.30;0.80;;;;;;;8.36;96.33;100988.78;5035451;28;20508;-66
2023/05/02 01:08:59;;;;;;;1.60;0.95;;;;;;;8.35;96.50;100987.13;5035340;28;20496;-66
2023/05/02 01:11:43;;;;;;;1.52;1.20;;;;;;;8.04;96.46;100967.56;5034449;28;20159;-67
2023/05/02 01:14:11;;;;;;;2.03;1.33;;;;;;;7.97;96.55;100979.00;5035479;28;20472;-66
2023/05/02 01:16:42;;;;;;;2.28;1.20;;;;;;;8.27;96.04;101007.78;5034261;28;20036;-67
2023/05/02 01:19:23;;;;;;;1.63;1.00;;;;;;;8.23;95.63;101008.13;5035182;28;20098;-66
2023/05/02 01:21:51;;;;;;;1.60;0.90;;;;;;;8.30;95.02;101010.94;5035806;28;20029;-67
2023/05/02 01:24:26;;;;;;;1.52;1.20;;;;;;;8.28;94.45;101018.34;5034431;28;20025;-66
2023/05/02 01:27:08;;;;;;;2.17;1.30;;;;;;;8.20;93.60;101018.38;5044066;28;20021;-66
2023/05/02 01:29:36;;;;;;;1.40;1.00;;;;;;;8.24;93.08;101014.34;5029770;28;20129;-66
2023/05/02 01:32:03;;;;;;;1.67;1.02;;;;;;;8.27;92.49;101019.34;5033641;28;20022;-66
2023/05/02 01:34:30;;;;;;;2.63;1.20;;;;;;;8.39;92.38;101025.16;5035338;28;20022;-66
2023/05/02 01:36:58;;;;;;;1.70;1.30;;;;;;;8.30;92.33;101007.44;5035028;28;20079;-66
2023/05/02 01:39:25;;;;;;;2.63;1.40;;;;;;;8.31;92.76;101028.72;5033433;28;20124;-66
2023/05/02 01:41:55;;;;;;;1.52;1.20;;;;;;;8.35;92.63;101027.34;5034271;28;20029;-67
2023/05/02 01:44:23;;;;;;;1.67;1.27;;;;;;;8.28;93.74;101037.13;5036038;28;20349;-67
2023/05/02 01:46:50;;;;;;;1.98;1.33;;;;;;;8.47;92.55;101039.31;5034031;28;20032;-66
2023/05/02 01:49:18;;;;;;;2.25;1.50;;;;;;;8.36;93.14;101037.03;5037962;28;20052;-66
2023/05/02 01:51:46;;;;;;;2.28;1.40;;;;;;;8.44;92.19;101039.72;5038326;28;20430;-66
2023/05/02 01:54:14;;;;;;;1.58;1.17;;;;;;;8.37;92.68;101036.03;5035203;28;20105;-66
2023/05/02 01:56:42;;;;;;;2.50;1.58;;;;;;;8.41;92.64;101036.53;5034457;28;20372;-66
2023/05/02 01:59:11;;;;;;;3.35;1.30;;;;;;;8.31;93.19;101050.16;5035500;28;20021;-67
2023/05/02 02:01:39;;;;;;;2.58;1.30;;;;;;;8.27;93.59;101053.34;5035206;28;20040;-66
2023/05/02 02:04:07;;;;;;;2.58;1.50;;;;;;;8.35;92.53;101046.09;5035089;28;20036;-66
2023/05/02 02:06:34;;;;;;;3.33;1.35;;;;;;;8.35;93.18;101056.84;5034131;28;20039;-67
2023/05/02 02:09:00;;;;;;;3.40;1.45;;;;;;;8.33;93.02;101055.34;5030104;28;20084;-66
2023/05/02 02:11:33;;;;;;;2.88;1.40;;;;;;;8.36;93.46;101060.34;5046445;28;20072;-66
2023/05/02 02:14:11;;;;;;;3.35;1.60;;;;;;;8.20;93.65;101047.88;5035066;28;20065;-67
2023/05/02 02:16:38;;;;;;;2.22;1.70;;;;;;;8.33;93.71;101072.25;5033612;28;20116;-67
2023/05/02 02:19:07;;;;;;;3.17;1.73;;;;;;;8.35;93.54;101078.28;5034234;28;20028;-66
2023/05/02 02:21:35;;;;;;;1.90;1.30;;;;;;;8.29;94.13;101073.63;5034251;28;20026;-66
2023/05/02 02:24:02;;;;;;;2.90;1.67;;;;;;;8.30;93.97;101085.19;5033947;28;20025;-66
2023/05/02 02:26:28;;;;;;;2.88;1.70;;;;;;;8.31;93.84;101085.03;5032571;28;20502;-66
2023/05/02 02:28:54;;;;;;;4.28;1.70;;;;;;;8.03;94.73;101057.03;5031883;28;20128;-66
2023/05/02 02:31:20;;;;;;;3.03;1.70;;;;;;;8.21;93.97;101065.63;5033759;28;20025;-66
2023/05/02 02:33:45;;;;;;;4.60;1.77;;;;;;;8.31;93.68;101085.03;5016146;28;20037;-67
2023/05/02 02:36:13;;;;;;;3.08;1.80;;;;;;;8.33;93.73;101082.97;5032543;28;20041;-66
2023/05/02 02:38:47;;;;;;;2.72;1.80;;;;;;;8.14;94.43;101086.94;5033596;28;20049;-66
2023/05/02 02:41:23;;;;;;;4.88;1.60;;;;;;;8.14;94.72;101099.50;5033504;28;20032;-67
2023/05/02 02:44:26;;;;;;;2.83;1.60;;;;;;;7.74;97.46;101101.38;5033782;28;20049;-66
2023/05/02 02:47:19;;;;;;;2.25;1.40;;;;;;;7.68;97.85;101069.91;5033023;28;20333;-66
2023/05/02 02:50:11;;;;;;;3.30;1.48;;;;;;;7.56;97.84;101098.09;5033702;28;20500;-66
2023/05/02 02:53:01;;;;;;;3.72;1.77;;;;;;;7.83;97.46;101104.84;5022895;28;20045;-67
2023/05/02 02:55:39;;;;;;;3.35;1.70;;;;;;;7.61;97.88;101112.63;5032317;28;20171;-66
2023/05/02 02:58:16;;;;;;;2.28;1.63;;;;;;;7.67;98.00;101111.94;5033381;28;20060;-66
2023/05/02 03:00:43;;;;;;;2.78;1.70;;;;;;;7.84;96.50;101112.72;5033599;28;20030;-66
2023/05/02 03:03:11;;;;;;;8.05;1.60;;;;;;;7.76;96.58;101118.13;5033133;28;20112;-66
2023/05/02 03:05:37;;;;;;;5.22;1.70;;;;;;;7.62;95.63;101113.47;5032446;28;20112;-67
2023/05/02 03:08:03;;;;;;;3.13;1.60;;;;;;;7.66;94.87;101114.81;5032268;28;20105;-66
2023/05/02 03:10:28;;;;;;;4.05;1.67;;;;;;;7.62;95.19;101125.03;5033609;28;20542;-66
2023/05/02 03:12:54;;;;;;;2.42;1.45;;;;;;;7.66;94.57;101131.69;5030615;28;20033;-67
2023/05/02 03:15:53;;;;;;;4.82;1.35;;;;;;;7.45;93.26;101108.16;5031902;28;20037;-66
2023/05/02 03:18:18;;;;;;;3.97;2.00;;;;;;;7.52;92.58;101102.97;5032969;28;20116;-66
2023/05/02 03:20:43;;;;;;;3.10;1.50;;;;;;;7.73;92.19;101137.22;5033215;28;20109;-66
2023/05/02 03:23:09;;;;;;;3.08;1.50;;;;;;;7.53;91.53;101100.09;5032825;28;20464;-66
2023/05/02 03:25:35;;;;;;;2.25;1.65;;;;;;;7.72;90.95;101146.25;5031860;28;20034;-66
2023/05/02 03:28:01;;;;;;;2.70;1.55;;;;;;;7.69;91.97;101141.25;5032928;28;20033;-67
2023/05/02 03:30:26;;;;;;;2.15;1.40;;;;;;;7.65;91.38;101150.59;5033419;28;20476;-66
2023/05/02 03:32:51;;;;;;;2.67;1.48;;;;;;;7.68;91.16;101155.63;5032916;28;20104;-67
2023/05/02 03:35:17;;;;;;;2.13;1.50;;;;;;;7.88;90.58;101153.38;5015171;28;20381;-66
2023/05/02 03:37:43;;;;;;;3.00;1.40;;;;;;;7.91;90.62;101150.34;5033135;28;20050;-66
2023/05/02 03:40:09;;;;;;;2.97;1.70;;;;;;;7.51;91.77;101139.59;5031940;28;20037;-66
2023/05/02 03:42:40;;;;;;;3.53;1.73;;;;;;;7.79;91.45;101170.50;5031332;28;20036;-66
2023/05/02 03:45:06;;;;;;;3.20;1.60;;;;;;;7.71;91.01;101160.63;5031419;28;20111;-66
2023/05/02 03:47:31;;;;;;;4.10;1.88;;;;;;;7.77;90.15;101165.31;5031276;28;20047;-66
2023/05/02 03:49:58;;;;;;;2.25;1.58;;;;;;;8.04;88.96;101166.72;5031141;28;20030;-66
2023/05/02 03:52:24;;;;;;;3.55;1.65;;;;;;;8.18;88.18;101173.22;5032886;28;20029;-66
2023/05/02 03:54:50;;;;;;;1.85;1.40;;;;;;;8.63;86.25;101180.53;5032807;28;20033;-66
2023/05/02 03:57:16;;;;;;;2.08;1.65;;;;;;;9.10;83.65;101184.06;5031526;28;20025;-66
2023/05/02 03:59:44;;;;;;;3.83;1.58;;;;;;;9.25;82.31;101182.28;5039253;28;20048;-66
2023/05/02 04:02:10;;;;;;;4.80;1.63;;;;;;;9.51;79.87;101138.88;5048647;28;20083;-66
2023/05/02 04:04:37;;;;;;;4.07;1.42;;;;;;;9.65;78.98;101183.72;5036051;28;20093;-67
2023/05/02 04:07:02;;;;;;;4.03;1.58;;;;;;;9.75;78.88;101191.53;5018522;28;20033;-66
2023/05/02 04:09:28;;;;;;;4.05;1.58;;;;;;;10.10;76.63;101179.22;5039339;28;20024;-67
2023/05/02 04:11:53;;;;;;;3.70;1.55;;;;;;;10.14;76.37;101203.88;5032604;28;20033;-66
2023/05/02 04:14:19;;;;;;;4.13;1.98;;;;;;;10.48;75.47;101207.84;5032367;28;20060;-67
2023/05/02 04:16:51;;;;;;;3.42;1.27;;;;;;;10.68;74.33;101211.59;5031223;28;20429;-67
2023/05/02 04:19:17;;;;;;;6.55;1.38;;;;;;;10.79;73.54;101207.56;5030939;28;20028;-66
2023/05/02 04:21:44;;;;;;;3.58;1.58;;;;;;;11.02;73.01;101210.06;5030833;28;20022;-66
2023/05/02 04:24:10;;;;;;;2.47;1.40;;;;;;;11.20;72.54;101213.16;5031298;28;20074;-66
2023/05/02 04:26:35;;;;;;;2.30;1.42;;;;;;;11.48;70.58;101220.44;5032577;28;20108;-66
2023/05/02 04:29:01;;;;;;;2.63;1.25;;;;;;;11.42;69.25;101219.38;5031899;28;20052;-66
2023/05/02 04:31:27;;;;;;;2.30;1.38;;;;;;;11.15;69.55;101225.53;5031548;28;20029;-66
2023/05/02 04:33:52;;;;;;;3.40;1.50;;;;;;;11.18;69.15;101199.03;5031243;28;20618;-66
2023/05/02 04:36:21;;;;;;;3.17;1.65;;;;;;;11.15;69.05;101210.19;5030756;28;20550;-66
2023/05/02 04:38:46;;;;;;;2.20;1.30;;;;;;;11.52;67.78;101235.19;5029435;28;20081;-67
2023/05/02 04:41:12;;;;;;;2.25;1.20;;;;;;;11.12;67.98;101237.53;5030013;28;20113;-66
2023/05/02 04:43:37;;;;;;;2.72;1.42;;;;;;;11.77;66.43;101247.22;5048258;28;20022;-66
2023/05/02 04:46:03;;;;;;;2.10;1.55;;;;;;;11.69;65.18;101249.25;5040247;28;20033;-66
2023/05/02 04:48:28;;;;;;;3.13;1.48;;;;;;;12.06;64.60;101258.88;5034338;28;20218;-66
2023/05/02 04:50:54;;;;;;;2.10;1.38;;;;;;;11.83;64.61;101237.50;5013475;28;20026;-66
2023/05/02 04:53:21;;;;;;;4.07;1.30;;;;;;;11.53;65.23;101250.34;5031351;28;20033;-66
2023/05/02 04:55:46;;;;;;;2.83;1.70;;;;;;;11.56;64.63;101263.44;5028346;28;20025;-66
2023/05/02 04:58:12;;;;;;;3.60;1.27;;;;;;;11.64;64.74;101257.91;5036925;28;20124;-66
2023/05/02 05:00:37;;;;;;;2.60;1.15;;;;;;;11.66;64.73;101263.09;5045284;28;20045;-67
2023/05/02 05:03:03;;;;;;;3.35;1.67;;;;;;;11.43;64.40;101263.31;5035496;28;20030;-66
2023/05/02 05:05:28;;;;;;;2.20;1.35;;;;;;;12.15;62.70;101275.72;5031363;28;20038;-66
2023/05/02 05:07:54;;;;;;;2.47;1.40;;;;;;;12.32;61.63;101282.47;5029272;28;20033;-66
2023/05/02 05:10:19;;;;;;;3.22;1.52;;;;;;;12.19;61.62;101283.22;5030832;28;20651;-66
2023/05/02 05:12:45;;;;;;;1.58;1.40;;;;;;;11.72;62.57;101291.94;5033881;28;20040;-66
2023/05/02 05:15:10;;;;;;;2.38;1.48;;;;;;;11.26;62.86;101290.53;5031952;28;20089;-66
2023/05/02 05:17:36;;;;;;;3.97;1.60;;;;;;;11.64;63.28;101298.31;5032814;28;20053;-66
2023/05/02 05:20:02;;;;;;;4.05;1.52;;;;;;;11.55;63.00;101304.03;5032950;28;20106;-66
2023/05/02 05:22:28;;;;;;;2.15;1.52;;;;;;;10.75;65.55;101305.88;5030680;28;20385;-66
2023/05/02 05:24:54;;;;;;;2.38;1.27;;;;;;;9.98;68.51;101317.78;5032794;28;20033;-66
2023/05/02 05:27:20;;;;;;;2.05;1.40;;;;;;;9.51;71.83;101310.81;5032896;28;20112;-66
2023/05/02 05:29:47;;;;;;;3.10;1.30;;;;;;;9.40;73.19;101325.50;5032505;28;20449;-66
2023/05/02 05:32:12;;;;;;;2.83;1.40;;;;;;;9.11;73.64;101320.00;5030748;28;20392;-66
2023/05/02 05:34:38;;;;;;;2.35;1.48;;;;;;;9.13;74.31;101326.81;5032099;28;20028;-66
2023/05/02 05:37:03;;;;;;;2.97;1.38;;;;;;;9.02;73.75;101327.25;5032168;28;20041;-66
2023/05/02 05:39:29;;;;;;;2.67;1.42;;;;;;;8.82;74.21;101299.16;5031163;28;20086;-66
2023/05/02 05:41:56;;;;;;;3.00;1.55;;;;;;;9.32;73.99;101333.59;5034539;28;20070;-66
2023/05/02 05:44:21;;;;;;;1.83;1.40;;;;;;;9.07;74.32;101327.56;5034742;28;20018;-66
2023/05/02 05:46:47;;;;;;;4.90;1.67;;;;;;;9.10;74.54;101315.59;5035915;28;20029;-66
2023/05/02 05:49:14;;;;;;;3.92;1.40;;;;;;;9.31;74.59;101336.47;5035439;28;20025;-65
2023/05/02 05:51:40;;;;;;;2.28;1.38;;;;;;;9.36;75.16;101344.81;5034430;28;20107;-65
2023/05/02 05:54:06;;;;;;;2.47;1.45;;;;;;;9.48;74.29;101350.63;5033678;28;20026;-69
2023/05/02 05:56:31;;;;;;;2.60;1.20;;;;;;;9.27;74.50;101341.38;5033320;28;20504;-66
2023/05/02 05:58:57;;;;;;;1.80;1.23;;;;;;;9.36;74.00;101359.09;5032536;28;20044;-65
2023/05/02 06:01:22;;;;;;;2.85;1.60;;;;;;;9.04;74.11;101327.03;5034837;28;20056;-66
2023/05/02 06:03:48;;;;;;;4.20;1.38;;;;;;;9.53;74.04;101361.66;5033193;28;20620;-64
2023/05/02 06:06:13;;;;;;;1.48;1.38;;;;;;;9.93;72.64;101373.13;5016668;28;20049;-71
2023/05/02 06:08:39;;;;;;;3.03;1.60;;;;;;;9.69;73.51;101372.28;5033637;28;20025;-66
2023/05/02 06:11:09;;;;;;;3.47;1.45;;;;;;;9.88;72.88;101377.19;5034203;28;20045;-64
2023/05/02 06:13:34;;;;;;;2.25;1.55;;;;;;;9.84;72.37;101375.88;5034900;28;20018;-65
2023/05/02 06:16:01;;;;;;;3.33;1.55;;;;;;;9.90;72.20;101368.97;5034205;28;20036;-66
2023/05/02 06:18:26;;;;;;;3.78;1.38;;;;;;;9.72;72.48;101382.69;5032778;28;20100;-65
2023/05/02 06:20:52;;;;;;;3.03;1.45;;;;;;;10.26;70.53;101396.03;5033570;28;20097;-67
2023/05/02 06:23:17;;;;;;;4.13;1.48;;;;;;;10.13;70.92;101409.22;5034740;28;20033;-65
2023/05/02 06:25:43;;;;;;;2.90;1.40;;;;;;;10.01;70.05;101408.00;5034582;28;20040;-66
2023/05/02 06:28:08;;;;;;;2.15;1.45;;;;;;;10.06;70.50;101411.81;5032550;28;20040;-65
2023/05/02 06:30:34;;;;;;;3.13;1.40;;;;;;;10.33;69.42;101426.59;5034482;28;20021;-67
2023/05/02 06:33:03;;;;;;;3.92;1.42;;;;;;;10.47;69.15;101432.19;5016716;28;20021;-66
2023/05/02 06:35:28;;;;;;;3.42;1.40;;;;;;;10.57;67.60;101430.91;5032975;28;20045;-66
2023/05/02 06:37:55;;;;;;;3.00;1.30;;;;;;;10.47;66.75;101433.00;5031271;28;20064;-65
2023/05/02 06:40:21;;;;;;;2.83;1.33;;;;;;;10.57;66.69;101438.13;5032044;28;20697;-65
2023/05/02 06:42:46;;;;;;;1.95;1.20;;;;;;;10.69;66.14;101444.72;5033060;28;20045;-65
2023/05/02 06:45:12;;;;;;;2.47;1.20;;;;;;;10.66;65.18;101444.25;5014234;28;20029;-66
2023/05/02 06:47:37;;;;;;;3.03;1.10;;;;;;;10.45;64.01;101448.50;5033897;28;20038;-65
2023/05/02 06:50:03;;;;;;;1.98;1.20;;;;;;;10.27;64.20;101450.69;5033733;28;20139;-65
2023/05/02 06:52:29;;;;;;;1.88;1.10;;;;;;;10.42;63.87;101461.47;5032146;28;20079;-65
2023/05/02 06:54:54;;;;;;;2.40;1.05;;;;;;;10.41;63.62;101475.94;5032783;28;20412;-65
2023/05/02 06:57:19;;;;;;;2.15;1.10;;;;;;;10.32;63.32;101478.69;5034052;28;20115;-65
2023/05/02 06:59:45;;;;;;;3.38;1.20;;;;;;;10.38;62.82;101482.53;5032546;28;20037;-64
2023/05/02 07:02:10;;;;;;;2.95;1.30;;;;;;;10.38;62.73;101484.38;5034126;28;20045;-65
2023/05/02 07:04:36;;;;;;;2.50;1.20;;;;;;;10.45;62.83;101478.09;5033482;28;20038;-65
2023/05/02 07:07:02;;;;;;;2.75;0.90;;;;;;;10.29;63.02;101484.44;5034098;28;20141;-64
2023/05/02 07:09:28;;;;;;;1.80;1.05;;;;;;;10.40;62.21;101488.56;5034161;28;20120;-68
2023/05/02 07:11:53;;;;;;;1.50;0.80;;;;;;;10.49;61.73;101506.31;5017040;28;20049;-65
2023/05/02 07:14:18;;;;;;;2.80;1.20;;;;;;;10.00;61.30;101498.59;5032233;28;20029;-67
2023/05/02 07:16:44;;;;;;;3.65;1.20;;;;;;;10.10;60.54;101499.19;5032167;28;20029;-64
2023/05/02 07:19:10;;;;;;;3.90;1.20;;;;;;;10.06;60.19;101507.78;5033060;28;20562;-65
2023/05/02 07:21:36;;;;;;;2.42;1.10;;;;;;;9.85;60.90;101509.25;5032160;28;20912;-64
2023/05/02 07:24:02;;;;;;;1.70;1.00;;;;;;;10.00;61.18;101508.50;5032974;28;20065;-74
2023/05/02 07:26:27;;;;;;;1.65;0.98;;;;;;;10.10;60.76;101507.25;5032022;28;20037;-66
2023/05/02 07:28:52;;;;;;;0.88;0.70;;;;;;;10.17;60.78;101520.81;5033135;28;20076;-64
2023/05/02 07:31:18;;;;;;;1.63;0.90;;;;;;;10.08;59.19;101527.28;5033147;28;20025;-64
2023/05/02 07:33:43;;;;;;;2.92;0.85;;;;;;;10.16;59.37;101524.50;5015108;28;20528;-64
2023/05/02 07:36:09;;;;;;;3.42;1.00;;;;;;;10.28;58.85;101523.13;5050227;28;20041;-66
2023/05/02 07:38:37;;;;;;;2.20;0.90;;;;;;;10.04;59.70;101510.66;5041382;28;20520;-64
2023/05/02 07:41:03;;;;;;;2.35;1.17;;;;;;;10.23;59.95;101527.31;5033986;28;20143;-64
2023/05/02 07:43:28;;;;;;;1.75;1.00;;;;;;;10.11;60.08;101518.84;5032510;28;20075;-64
2023/05/02 07:45:54;;;;;;;2.40;1.15;;;;;;;10.16;59.44;101551.41;5031965;28;20034;-70
2023/05/02 07:48:20;;;;;;;1.25;0.75;;;;;;;10.09;58.80;101537.84;5034647;28;20100;-64
2023/05/02 07:50:45;;;;;;;2.65;1.02;;;;;;;10.30;57.50;101552.56;5032509;28;20029;-64
2023/05/02 07:53:11;;;;;;;2.90;1.10;;;;;;;10.15;57.60;101547.06;5030784;28;20022;-64
2023/05/02 07:55:36;;;;;;;1.63;0.98;;;;;;;10.12;58.22;101556.31;5019921;28;20029;-68
2023/05/02 07:58:02;;;;;;;5.05;0.88;;;;;;;10.06;58.54;101550.81;5034188;28;20493;-64
2023/05/02 08:00:29;;;;;;;2.45;0.95;;;;;;;10.19;56.91;101553.75;5036575;28;20037;-64
2023/05/02 08:02:54;;;;;;;1.30;0.70;;;;;;;9.95;56.55;101548.53;5032074;28;20393;-64
2023/05/02 08:05:20;;;;;;;1.90;0.70;;;;;;;9.71;53.91;101557.56;5031889;28;20030;-65
2023/05/02 08:07:45;;;;;;;1.52;1.05;;;;;;;9.66;54.55;101555.38;5032650;28;20048;-64
2023/05/02 08:10:11;;;;;;;1.85;0.60;;;;;;;9.79;54.91;101565.56;5032669;28;20610;-65
2023/05/02 08:12:40;;;;;;;1.45;0.60;;;;;;;9.87;55.59;101573.63;5032397;28;20204;-64
2023/05/02 08:15:12;;;;;;;1.30;0.70;;;;;;;9.75;54.05;101575.00;5033830;28;20036;-64
2023/05/02 08:17:37;;;;;;;0.77;0.55;;;;;;;9.85;53.04;101581.84;5033119;28;20485;-64
2023/05/02 08:20:03;;;;;;;2.33;0.90;;;;;;;9.91;54.81;101579.47;5032959;28;20022;-64
2023/05/02 08:22:29;;;;;;;0.98;0.60;;;;;;;9.98;55.06;101575.06;5038014;28;20029;-65
2023/05/02 08:24:54;;;;;;;2.05;0.70;;;;;;;10.05;55.01;101581.41;5053842;28;20025;-64
2023/05/02 08:27:20;;;;;;;1.83;0.70;;;;;;;9.98;57.92;101585.81;5034807;28;20033;-64
2023/05/02 08:29:45;;;;;;;1.60;0.90;;;;;;;10.21;58.21;101594.75;5033066;28;20051;-65
2023/05/02 08:32:10;;;;;;;2.22;0.80;;;;;;;10.12;58.18;101587.75;5032626;28;20120;-65
2023/05/02 08:34:36;;;;;;;1.23;0.70;;;;;;;10.04;59.99;101595.88;5030663;28;20477;-83
2023/05/02 08:37:07;;;;;;;3.03;1.00;;;;;;;10.05;59.56;101600.22;5031772;28;20091;-64
2023/05/02 08:39:32;;;;;;;2.00;0.90;;;;;;;9.88;60.30;101607.53;5031021;28;20021;-64
2023/05/02 08:41:58;;;;;;;3.17;1.08;;;;;;;9.98;59.90;101607.31;5031992;28;20397;-65
2023/05/02 08:44:23;;;;;;;2.22;0.90;;;;;;;10.09;60.03;101601.53;5030088;28;20362;-78
2023/05/02 08:46:51;;;;;;;2.80;1.02;;;;;;;10.12;60.17;101603.88;5029703;28;20523;-64
2023/05/02 08:49:17;;;;;;;2.90;1.25;;;;;;;9.91;59.89;101591.06;5031809;28;20049;-65
2023/05/02 08:51:44;;;;;;;2.03;1.02;;;;;;;10.21;58.75;101624.34;5030335;28;20357;-64
2023/05/02 08:54:10;;;;;;;2.17;1.00;;;;;;;10.14;59.74;101626.06;5030989;28;20369;-64
2023/05/02 08:56:36;;;;;;;2.75;0.95;;;;;;;10.02;58.83;101632.84;5031755;28;20036;-64
2023/05/02 08:59:02;;;;;;;2.25;1.00;;;;;;;10.08;58.98;101630.28;5029411;28;20500;-65
2023/05/02 09:01:34;;;;;;;4.10;1.02;;;;;;;10.03;59.48;101613.84;5030952;28;20138;-65
2023/05/02 09:04:00;;;;;;;1.92;0.73;;;;;;;10.01;59.96;101615.03;5029822;28;20428;-64
2023/05/02 09:06:26;;;;;;;2.60;1.00;;;;;;;10.05;59.81;101640.56;5030522;28;20039;-65
2023/05/02 09:08:51;;;;;;;2.13;1.10;;;;;;;10.04;58.50;101657.72;5046319;28;20026;-65
2023/05/02 09:11:18;;;;;;;3.75;1.00;;;;;;;10.13;57.28;101648.56;5031518;28;20017;-80
2023/05/02 09:13:44;;;;;;;2.15;1.02;;;;;;;10.03;57.61;101653.31;5029992;28;20049;-64
2023/05/02 09:16:16;;;;;;;2.40;0.60;;;;;;;9.97;56.56;101648.69;5033277;28;20018;-65
2023/05/02 09:18:48;;;;;;;1.63;0.60;;;;;;;10.02;56.37;101657.03;5035445;28;20047;-64
2023/05/02 09:21:25;;;;;;;1.15;0.55;;;;;;;9.95;54.69;101666.81;5034147;28;20476;-75
2023/05/02 09:23:56;;;;;;;1.27;0.50;;;;;;;10.05;53.54;101667.44;5033625;28;20034;-65
2023/05/02 09:26:22;;;;;;;1.70;0.60;;;;;;;9.89;53.72;101666.50;5035100;28;20029;-65
2023/05/02 09:28:48;;;;;;;2.15;0.55;;;;;;;10.03;51.79;101664.94;5035208;28;20112;-73
2023/05/02 09:31:19;;;;;;;1.77;0.70;;;;;;;10.04;51.65;101671.16;5033876;28;20035;-64
2023/05/02 09:33:45;;;;;;;2.75;0.60;;;;;;;9.90;52.93;101672.72;5035604;28;20381;-65
2023/05/02 09:36:13;;;;;;;2.35;0.88;;;;;;;9.85;55.24;101658.97;5035430;28;20038;-65
2023/05/02 09:38:40;;;;;;;1.20;0.60;;;;;;;10.08;57.23;101677.84;5034458;28;20184;-64
2023/05/02 09:41:05;;;;;;;2.22;0.80;;;;;;;10.01;58.32;101679.56;5033275;28;20021;-64
2023/05/02 09:43:32;;;;;;;1.92;0.70;;;;;;;10.10;58.95;101678.53;5034405;28;20044;-65
2023/05/02 09:45:57;;;;;;;3.50;1.00;;;;;;;10.01;59.22;101688.47;5035948;28;20085;-64
2023/05/02 09:48:23;;;;;;;2.70;0.90;;;;;;;10.26;58.95;101697.28;5034047;28;20071;-65
2023/05/02 09:50:49;;;;;;;2.25;0.80;;;;;;;10.21;59.53;101696.13;5034051;28;20394;-64
2023/05/02 09:53:14;;;;;;;2.08;0.80;;;;;;;10.20;60.72;101703.38;5033984;28;20037;-65
2023/05/02 09:55:40;;;;;;;3.35;1.25;;;;;;;10.45;60.81;101706.78;5033979;28;20029;-64
2023/05/02 09:58:05;;;;;;;2.97;1.00;;;;;;;10.46;60.87;101705.81;5034978;28;20035;-65
2023/05/02 10:00:43;;;;;;;2.15;0.90;;;;;;;10.54;60.94;101710.28;5033528;28;20449;-65
2023/05/02 10:03:09;;;;;;;4.63;0.93;;;;;;;10.63;62.49;101703.00;5035784;28;20105;-66
2023/05/02 10:05:39;;;;;;;2.35;0.82;;;;;;;10.48;62.01;101713.69;5033799;28;20025;-67
2023/05/02 10:08:06;;;;;;;2.97;1.08;;;;;;;10.43;61.29;101713.34;5034687;28;20029;-66
2023/05/02 10:10:35;;;;;;;3.63;0.90;;;;;;;10.50;61.33;101715.19;5043332;28;20084;-66
2023/05/02 10:13:08;;;;;;;1.73;0.80;;;;;;;10.58;60.24;101722.38;5034335;28;20053;-66
2023/05/02 10:15:41;;;;;;;2.90;1.05;;;;;;;10.40;60.25;101687.66;5035385;28;20026;-66
2023/05/02 10:18:17;;;;;;;1.02;0.70;;;;;;;10.47;60.54;101725.47;5035199;28;20053;-66
2023/05/02 10:21:10;;;;;;;2.08;0.90;;;;;;;10.89;58.36;101726.88;5035233;28;20021;-66
2023/05/02 10:23:40;;;;;;;2.83;0.70;;;;;;;10.80;56.77;101732.34;5027521;28;20037;-64
2023/05/02 10:26:06;;;;;;;2.50;0.80;;;;;;;10.85;57.26;101733.66;5034818;28;20049;-64
2023/05/02 10:28:32;;;;;;;1.60;0.60;;;;;;;10.65;57.86;101720.66;5034270;28;20041;-65
2023/05/02 10:31:01;;;;;;;1.80;0.68;;;;;;;10.61;57.44;101742.72;5033728;28;20021;-65
2023/05/02 10:33:27;;;;;;;3.55;0.88;;;;;;;10.58;57.85;101746.59;5032767;28;20087;-66
2023/05/02 10:35:53;;;;;;;2.80;0.75;;;;;;;10.46;58.34;101756.06;5036184;28;20071;-66
2023/05/02 10:38:20;;;;;;;3.72;0.90;;;;;;;10.56;58.98;101756.69;5034649;28;20058;-66
2023/05/02 10:40:55;;;;;;;1.98;0.70;;;;;;;10.58;57.46;101749.28;5017002;28;20033;-66
2023/05/02 10:43:23;;;;;;;1.67;0.80;;;;;;;10.72;58.83;101755.78;5035407;28;20025;-65
2023/05/02 10:45:49;;;;;;;0.90;0.60;;;;;;;10.64;58.76;101715.44;5035215;28;20443;-65
2023/05/02 10:48:26;;;;;;;2.72;0.80;;;;;;;10.64;59.75;101755.81;5035390;28;20032;-65
2023/05/02 10:50:53;;;;;;;2.50;0.80;;;;;;;10.72;59.61;101764.69;5035862;28;20025;-65
2023/05/02 10:53:38;;;;;;;1.48;0.68;;;;;;;10.68;56.65;101765.22;5036066;28;20041;-66
2023/05/02 10:56:14;;;;;;;2.00;0.60;;;;;;;10.68;57.17;101765.22;5034849;28;20025;-66
2023/05/02 10:58:40;;;;;;;2.83;0.60;;;;;;;10.79;57.51;101768.38;5036507;28;20083;-66
2023/05/02 11:01:29;;;;;;;3.50;0.70;;;;;;;10.78;56.46;101790.06;5036752;28;20029;-66
2023/05/02 11:04:05;;;;;;;2.53;0.82;;;;;;;10.63;56.51;101767.59;5033259;28;20114;-66
2023/05/02 11:06:36;;;;;;;2.22;0.47;;;;;;;10.55;56.76;101766.63;5038549;28;20033;-65
2023/05/02 11:09:27;;;;;;;1.63;0.70;;;;;;;10.60;55.54;101778.72;5035524;28;20083;-65
2023/05/02 11:11:56;;;;;;;1.52;0.52;;;;;;;10.64;56.47;101769.28;5031951;28;20038;-70
2023/05/02 11:14:24;;;;;;;2.03;0.60;;;;;;;10.66;56.15;101784.25;5034299;28;20032;-65
2023/05/02 11:17:05;;;;;;;1.20;0.60;;;;;;;10.83;55.75;101782.31;5034642;28;20033;-66
2023/05/02 11:19:36;;;;;;;2.10;0.73;;;;;;;10.65;56.52;101779.84;5036187;28;20029;-65
2023/05/02 11:22:20;;;;;;;2.53;0.70;;;;;;;10.98;56.34;101793.16;5034255;28;20248;-66
2023/05/02 11:24:47;;;;;;;1.00;0.65;;;;;;;10.78;55.80;101792.75;5034934;28;20060;-65
2023/05/02 11:27:28;;;;;;;1.15;0.50;;;;;;;10.97;55.08;101791.47;5033373;28;20025;-66
2023/05/02 11:29:54;;;;;;;3.53;0.80;;;;;;;11.17;54.92;101792.69;5033479;28;20029;-65
2023/05/02 11:32:21;;;;;;;2.30;0.82;;;;;;;10.97;54.02;101802.25;5039559;28;20036;-66
2023/05/02 11:34:51;;;;;;;2.45;0.60;;;;;;;10.99;52.98;101784.91;5033549;28;20033;-66